sensor_id;sensor_type;location;lat;lon;timestamp;P1;durP1;ratioP1;P2;durP2;ratioP2
3006;SDS011;1513;47.650;10.720;2024-03-07T00:02:10;13.73;;;6.87;;
3006;SDS011;1513;47.650;10.720;2024-03-07T00:05:27;13.00;;;6.20;;
3006;SDS011;1513;47.650;10.720;2024-03-07T00:08:43;13.90;;;6.33;;
3006;SDS011;1513;47.650;10.720;2024-03-07T00:11:57;11.20;;;5.63;;
3006;SDS011;1513;47.650;10.720;2024-03-07T00:26:36;14.57;;;6.63;;
3006;SDS011;1513;47.650;10.720;2024-03-07T00:30:00;13.73;;;7.50;;
3006;SDS011;1513;47.650;10.720;2024-03-07T00:33:24;14.10;;;7.30;;
3006;SDS011;1513;47.650;10.720;2024-03-07T00:36:48;15.70;;;7.80;;
3006;SDS011;1513;47.650;10.720;2024-03-07T00:40:22;20.87;;;9.17;;
3006;SDS011;1513;47.650;10.720;2024-03-07T00:44:01;18.70;;;8.90;;
3006;SDS011;1513;47.650;10.720;2024-03-07T00:48:13;18.00;;;8.70;;
3006;SDS011;1513;47.650;10.720;2024-03-07T00:51:52;18.60;;;9.00;;
3006;SDS011;1513;47.650;10.720;2024-03-07T00:55:37;17.37;;;8.70;;
3006;SDS011;1513;47.650;10.720;2024-03-07T00:58:25;17.60;;;7.50;;
3006;SDS011;1513;47.650;10.720;2024-03-07T01:02:06;19.53;;;7.97;;
3006;SDS011;1513;47.650;10.720;2024-03-07T01:05:55;17.90;;;7.73;;
3006;SDS011;1513;47.650;10.720;2024-03-07T01:09:27;16.40;;;7.67;;
3006;SDS011;1513;47.650;10.720;2024-03-07T01:12:06;16.20;;;7.23;;
3006;SDS011;1513;47.650;10.720;2024-03-07T01:15:40;15.77;;;7.80;;
3006;SDS011;1513;47.650;10.720;2024-03-07T01:19:23;16.53;;;8.27;;
3006;SDS011;1513;47.650;10.720;2024-03-07T01:30:50;17.87;;;8.60;;
3006;SDS011;1513;47.650;10.720;2024-03-07T01:33:49;17.63;;;8.40;;
3006;SDS011;1513;47.650;10.720;2024-03-07T01:37:39;15.97;;;7.63;;
3006;SDS011;1513;47.650;10.720;2024-03-07T01:40:43;16.93;;;7.80;;
3006;SDS011;1513;47.650;10.720;2024-03-07T01:43:56;17.30;;;8.03;;
3006;SDS011;1513;47.650;10.720;2024-03-07T01:47:35;20.13;;;8.27;;
3006;SDS011;1513;47.650;10.720;2024-03-07T01:51:24;16.00;;;7.90;;
3006;SDS011;1513;47.650;10.720;2024-03-07T01:54:39;18.40;;;7.70;;
3006;SDS011;1513;47.650;10.720;2024-03-07T01:58:27;16.90;;;7.53;;
3006;SDS011;1513;47.650;10.720;2024-03-07T02:01:51;17.30;;;7.53;;
3006;SDS011;1513;47.650;10.720;2024-03-07T02:05:39;15.57;;;7.27;;
3006;SDS011;1513;47.650;10.720;2024-03-07T02:13:27;17.80;;;7.30;;
3006;SDS011;1513;47.650;10.720;2024-03-07T02:16:41;17.50;;;7.47;;
3006;SDS011;1513;47.650;10.720;2024-03-07T02:19:40;14.10;;;6.33;;
3006;SDS011;1513;47.650;10.720;2024-03-07T02:23:26;16.60;;;7.00;;
3006;SDS011;1513;47.650;10.720;2024-03-07T02:26:49;18.67;;;8.13;;
3006;SDS011;1513;47.650;10.720;2024-03-07T02:34:42;15.33;;;7.13;;
3006;SDS011;1513;47.650;10.720;2024-03-07T02:38:37;15.87;;;7.80;;
3006;SDS011;1513;47.650;10.720;2024-03-07T02:41:52;19.23;;;8.93;;
3006;SDS011;1513;47.650;10.720;2024-03-07T02:44:47;19.07;;;9.10;;
3006;SDS011;1513;47.650;10.720;2024-03-07T02:48:49;17.87;;;7.87;;
3006;SDS011;1513;47.650;10.720;2024-03-07T02:52:27;17.60;;;8.60;;
3006;SDS011;1513;47.650;10.720;2024-03-07T02:59:21;17.60;;;8.43;;
3006;SDS011;1513;47.650;10.720;2024-03-07T03:02:58;18.80;;;8.43;;
3006;SDS011;1513;47.650;10.720;2024-03-07T03:06:34;16.40;;;8.27;;
3006;SDS011;1513;47.650;10.720;2024-03-07T03:09:54;17.03;;;7.93;;
3006;SDS011;1513;47.650;10.720;2024-03-07T03:17:05;18.13;;;8.40;;
3006;SDS011;1513;47.650;10.720;2024-03-07T03:19:39;20.67;;;8.40;;
3006;SDS011;1513;47.650;10.720;2024-03-07T03:23:09;18.40;;;8.87;;
3006;SDS011;1513;47.650;10.720;2024-03-07T03:26:12;16.37;;;7.90;;
3006;SDS011;1513;47.650;10.720;2024-03-07T03:29:23;19.17;;;8.80;;
3006;SDS011;1513;47.650;10.720;2024-03-07T03:32:25;21.37;;;10.23;;
3006;SDS011;1513;47.650;10.720;2024-03-07T03:34:55;20.53;;;9.30;;
3006;SDS011;1513;47.650;10.720;2024-03-07T03:37:24;20.00;;;8.50;;
3006;SDS011;1513;47.650;10.720;2024-03-07T03:40:19;19.50;;;8.67;;
3006;SDS011;1513;47.650;10.720;2024-03-07T03:43:31;19.30;;;9.37;;
3006;SDS011;1513;47.650;10.720;2024-03-07T03:46:34;20.03;;;8.50;;
3006;SDS011;1513;47.650;10.720;2024-03-07T03:49:22;18.43;;;8.20;;
3006;SDS011;1513;47.650;10.720;2024-03-07T03:52:53;23.33;;;10.10;;
3006;SDS011;1513;47.650;10.720;2024-03-07T03:55:46;21.47;;;9.07;;
3006;SDS011;1513;47.650;10.720;2024-03-07T03:59:02;20.07;;;9.63;;
3006;SDS011;1513;47.650;10.720;2024-03-07T04:01:42;24.10;;;9.90;;
3006;SDS011;1513;47.650;10.720;2024-03-07T04:04:14;19.20;;;8.50;;
3006;SDS011;1513;47.650;10.720;2024-03-07T04:07:43;20.00;;;8.27;;
3006;SDS011;1513;47.650;10.720;2024-03-07T04:11:26;21.40;;;8.63;;
3006;SDS011;1513;47.650;10.720;2024-03-07T04:14:15;19.00;;;8.53;;
3006;SDS011;1513;47.650;10.720;2024-03-07T04:17:19;19.83;;;8.53;;
3006;SDS011;1513;47.650;10.720;2024-03-07T04:20:11;19.23;;;8.43;;
3006;SDS011;1513;47.650;10.720;2024-03-07T04:23:10;19.07;;;8.70;;
3006;SDS011;1513;47.650;10.720;2024-03-07T04:25:39;19.53;;;8.93;;
3006;SDS011;1513;47.650;10.720;2024-03-07T04:29:15;19.57;;;8.70;;
3006;SDS011;1513;47.650;10.720;2024-03-07T04:32:22;19.40;;;8.20;;
3006;SDS011;1513;47.650;10.720;2024-03-07T04:35:12;15.03;;;6.97;;
3006;SDS011;1513;47.650;10.720;2024-03-07T04:38:39;19.93;;;8.67;;
3006;SDS011;1513;47.650;10.720;2024-03-07T04:41:52;21.07;;;8.90;;
3006;SDS011;1513;47.650;10.720;2024-03-07T04:45:25;22.10;;;8.40;;
3006;SDS011;1513;47.650;10.720;2024-03-07T04:48:33;19.17;;;8.70;;
3006;SDS011;1513;47.650;10.720;2024-03-07T04:51:27;18.10;;;7.70;;
3006;SDS011;1513;47.650;10.720;2024-03-07T04:54:57;18.47;;;8.30;;
3006;SDS011;1513;47.650;10.720;2024-03-07T04:58:14;20.40;;;9.13;;
3006;SDS011;1513;47.650;10.720;2024-03-07T05:01:31;22.13;;;9.77;;
3006;SDS011;1513;47.650;10.720;2024-03-07T05:04:55;20.97;;;9.80;;
3006;SDS011;1513;47.650;10.720;2024-03-07T05:07:53;21.63;;;9.53;;
3006;SDS011;1513;47.650;10.720;2024-03-07T05:11:03;29.50;;;12.70;;
3006;SDS011;1513;47.650;10.720;2024-03-07T05:14:42;20.70;;;9.10;;
3006;SDS011;1513;47.650;10.720;2024-03-07T05:18:10;25.60;;;10.63;;
3006;SDS011;1513;47.650;10.720;2024-03-07T05:20:41;28.23;;;10.77;;
3006;SDS011;1513;47.650;10.720;2024-03-07T05:24:05;29.10;;;11.00;;
3006;SDS011;1513;47.650;10.720;2024-03-07T05:26:58;31.80;;;12.50;;
3006;SDS011;1513;47.650;10.720;2024-03-07T05:30:40;31.20;;;12.40;;
3006;SDS011;1513;47.650;10.720;2024-03-07T05:34:09;26.67;;;11.77;;
3006;SDS011;1513;47.650;10.720;2024-03-07T05:37:48;25.80;;;11.67;;
3006;SDS011;1513;47.650;10.720;2024-03-07T05:40:30;36.17;;;10.17;;
3006;SDS011;1513;47.650;10.720;2024-03-07T05:43:40;27.17;;;11.07;;
3006;SDS011;1513;47.650;10.720;2024-03-07T05:46:59;42.40;;;11.13;;
3006;SDS011;1513;47.650;10.720;2024-03-07T05:49:33;33.27;;;11.00;;
3006;SDS011;1513;47.650;10.720;2024-03-07T05:52:00;12.07;;;4.87;;
3006;SDS011;1513;47.650;10.720;2024-03-07T05:54:52;33.10;;;11.07;;
3006;SDS011;1513;47.650;10.720;2024-03-07T05:58:06;35.33;;;11.50;;
3006;SDS011;1513;47.650;10.720;2024-03-07T06:01:03;30.40;;;10.30;;
3006;SDS011;1513;47.650;10.720;2024-03-07T06:04:28;26.43;;;9.73;;
3006;SDS011;1513;47.650;10.720;2024-03-07T06:07:32;30.60;;;9.40;;
3006;SDS011;1513;47.650;10.720;2024-03-07T06:09:59;31.30;;;12.13;;
3006;SDS011;1513;47.650;10.720;2024-03-07T06:12:31;28.50;;;12.13;;
3006;SDS011;1513;47.650;10.720;2024-03-07T06:22:38;28.53;;;10.70;;
3006;SDS011;1513;47.650;10.720;2024-03-07T06:26:12;31.30;;;9.57;;
3006;SDS011;1513;47.650;10.720;2024-03-07T06:28:41;27.63;;;9.57;;
3006;SDS011;1513;47.650;10.720;2024-03-07T06:31:21;23.63;;;10.23;;
3006;SDS011;1513;47.650;10.720;2024-03-07T06:33:56;29.00;;;10.17;;
3006;SDS011;1513;47.650;10.720;2024-03-07T06:36:29;32.07;;;9.90;;
3006;SDS011;1513;47.650;10.720;2024-03-07T06:38:58;22.83;;;9.23;;
3006;SDS011;1513;47.650;10.720;2024-03-07T06:41:36;42.67;;;9.90;;
3006;SDS011;1513;47.650;10.720;2024-03-07T06:46:53;68.00;;;12.10;;
3006;SDS011;1513;47.650;10.720;2024-03-07T06:49:51;79.93;;;11.50;;
3006;SDS011;1513;47.650;10.720;2024-03-07T06:52:42;47.07;;;10.90;;
3006;SDS011;1513;47.650;10.720;2024-03-07T06:55:15;59.43;;;12.23;;
3006;SDS011;1513;47.650;10.720;2024-03-07T06:58:05;55.23;;;14.90;;
3006;SDS011;1513;47.650;10.720;2024-03-07T07:01:01;58.80;;;12.83;;
3006;SDS011;1513;47.650;10.720;2024-03-07T07:03:55;52.70;;;11.70;;
3006;SDS011;1513;47.650;10.720;2024-03-07T07:06:55;67.50;;;12.53;;
3006;SDS011;1513;47.650;10.720;2024-03-07T07:09:22;56.73;;;13.67;;
3006;SDS011;1513;47.650;10.720;2024-03-07T07:12:14;37.97;;;10.67;;
3006;SDS011;1513;47.650;10.720;2024-03-07T07:14:52;55.03;;;14.00;;
3006;SDS011;1513;47.650;10.720;2024-03-07T07:17:50;60.47;;;14.20;;
3006;SDS011;1513;47.650;10.720;2024-03-07T07:21:12;32.73;;;10.30;;
3006;SDS011;1513;47.650;10.720;2024-03-07T07:24:07;37.10;;;11.63;;
3006;SDS011;1513;47.650;10.720;2024-03-07T07:26:49;33.67;;;10.93;;
3006;SDS011;1513;47.650;10.720;2024-03-07T07:29:24;44.23;;;12.50;;
3006;SDS011;1513;47.650;10.720;2024-03-07T07:31:52;38.30;;;12.13;;
3006;SDS011;1513;47.650;10.720;2024-03-07T07:34:19;32.60;;;11.93;;
3006;SDS011;1513;47.650;10.720;2024-03-07T07:36:49;48.50;;;12.33;;
3006;SDS011;1513;47.650;10.720;2024-03-07T07:39:19;32.97;;;10.20;;
3006;SDS011;1513;47.650;10.720;2024-03-07T07:41:51;36.83;;;12.03;;
3006;SDS011;1513;47.650;10.720;2024-03-07T07:44:17;42.93;;;11.90;;
3006;SDS011;1513;47.650;10.720;2024-03-07T07:47:27;50.20;;;11.20;;
3006;SDS011;1513;47.650;10.720;2024-03-07T07:50:25;49.27;;;11.33;;
3006;SDS011;1513;47.650;10.720;2024-03-07T07:53:11;39.77;;;12.00;;
3006;SDS011;1513;47.650;10.720;2024-03-07T07:56:16;42.87;;;12.90;;
3006;SDS011;1513;47.650;10.720;2024-03-07T07:59:05;68.43;;;15.53;;
3006;SDS011;1513;47.650;10.720;2024-03-07T08:01:40;47.23;;;15.87;;
3006;SDS011;1513;47.650;10.720;2024-03-07T08:04:25;70.17;;;17.63;;
3006;SDS011;1513;47.650;10.720;2024-03-07T08:06:52;71.70;;;17.30;;
3006;SDS011;1513;47.650;10.720;2024-03-07T08:09:22;98.70;;;19.47;;
3006;SDS011;1513;47.650;10.720;2024-03-07T08:12:15;159.03;;;24.57;;
3006;SDS011;1513;47.650;10.720;2024-03-07T08:15:03;120.40;;;19.87;;
3006;SDS011;1513;47.650;10.720;2024-03-07T08:17:59;123.90;;;15.67;;
3006;SDS011;1513;47.650;10.720;2024-03-07T08:20:42;118.67;;;16.63;;
3006;SDS011;1513;47.650;10.720;2024-03-07T08:23:41;146.07;;;18.03;;
3006;SDS011;1513;47.650;10.720;2024-03-07T08:26:35;128.60;;;17.87;;
3006;SDS011;1513;47.650;10.720;2024-03-07T08:29:11;161.20;;;22.20;;
3006;SDS011;1513;47.650;10.720;2024-03-07T08:36:04;160.13;;;20.07;;
3006;SDS011;1513;47.650;10.720;2024-03-07T08:39:34;117.80;;;18.20;;
3006;SDS011;1513;47.650;10.720;2024-03-07T08:42:49;128.97;;;18.80;;
3006;SDS011;1513;47.650;10.720;2024-03-07T08:45:43;117.73;;;17.80;;
3006;SDS011;1513;47.650;10.720;2024-03-07T08:48:36;121.03;;;17.90;;
3006;SDS011;1513;47.650;10.720;2024-03-07T08:52:26;96.73;;;16.50;;
3006;SDS011;1513;47.650;10.720;2024-03-07T08:55:36;77.73;;;18.17;;
3006;SDS011;1513;47.650;10.720;2024-03-07T08:58:12;76.20;;;16.93;;
3006;SDS011;1513;47.650;10.720;2024-03-07T09:00:41;103.23;;;18.37;;
3006;SDS011;1513;47.650;10.720;2024-03-07T09:03:10;102.50;;;17.63;;
3006;SDS011;1513;47.650;10.720;2024-03-07T09:05:37;96.90;;;18.77;;
3006;SDS011;1513;47.650;10.720;2024-03-07T09:08:09;93.60;;;19.27;;
3006;SDS011;1513;47.650;10.720;2024-03-07T09:10:36;68.10;;;17.07;;
3006;SDS011;1513;47.650;10.720;2024-03-07T09:13:14;80.57;;;17.67;;
3006;SDS011;1513;47.650;10.720;2024-03-07T09:16:09;84.63;;;17.70;;
3006;SDS011;1513;47.650;10.720;2024-03-07T09:18:44;109.10;;;19.33;;
3006;SDS011;1513;47.650;10.720;2024-03-07T09:21:10;96.50;;;18.10;;
3006;SDS011;1513;47.650;10.720;2024-03-07T09:23:43;94.27;;;18.87;;
3006;SDS011;1513;47.650;10.720;2024-03-07T09:26:09;69.70;;;17.60;;
3006;SDS011;1513;47.650;10.720;2024-03-07T09:28:36;98.23;;;17.80;;
3006;SDS011;1513;47.650;10.720;2024-03-07T09:31:02;110.33;;;20.70;;
3006;SDS011;1513;47.650;10.720;2024-03-07T09:37:35;98.00;;;23.90;;
3006;SDS011;1513;47.650;10.720;2024-03-07T09:40:05;85.10;;;19.73;;
3006;SDS011;1513;47.650;10.720;2024-03-07T09:42:32;92.63;;;19.00;;
3006;SDS011;1513;47.650;10.720;2024-03-07T09:45:00;96.43;;;21.53;;
3006;SDS011;1513;47.650;10.720;2024-03-07T09:47:31;70.97;;;19.60;;
3006;SDS011;1513;47.650;10.720;2024-03-07T09:49:57;91.40;;;23.40;;
3006;SDS011;1513;47.650;10.720;2024-03-07T09:52:25;108.53;;;23.97;;
3006;SDS011;1513;47.650;10.720;2024-03-07T09:54:52;90.83;;;22.87;;
3006;SDS011;1513;47.650;10.720;2024-03-07T10:00:06;74.30;;;18.70;;
3006;SDS011;1513;47.650;10.720;2024-03-07T10:02:43;79.80;;;20.10;;
3006;SDS011;1513;47.650;10.720;2024-03-07T10:05:14;97.40;;;22.00;;
3006;SDS011;1513;47.650;10.720;2024-03-07T10:07:42;173.87;;;34.60;;
3006;SDS011;1513;47.650;10.720;2024-03-07T10:10:14;134.30;;;32.20;;
3006;SDS011;1513;47.650;10.720;2024-03-07T10:12:43;150.20;;;29.30;;
3006;SDS011;1513;47.650;10.720;2024-03-07T10:15:13;162.10;;;35.30;;
3006;SDS011;1513;47.650;10.720;2024-03-07T10:17:40;83.33;;;22.83;;
3006;SDS011;1513;47.650;10.720;2024-03-07T10:20:07;101.90;;;27.17;;
3006;SDS011;1513;47.650;10.720;2024-03-07T10:22:39;63.90;;;22.97;;
3006;SDS011;1513;47.650;10.720;2024-03-07T10:25:06;76.33;;;22.77;;
3006;SDS011;1513;47.650;10.720;2024-03-07T10:27:35;71.93;;;22.10;;
3006;SDS011;1513;47.650;10.720;2024-03-07T10:30:02;71.43;;;20.03;;
3006;SDS011;1513;47.650;10.720;2024-03-07T10:32:29;67.90;;;23.77;;
3006;SDS011;1513;47.650;10.720;2024-03-07T10:34:57;72.47;;;25.47;;
3006;SDS011;1513;47.650;10.720;2024-03-07T10:37:24;80.87;;;24.83;;
3006;SDS011;1513;47.650;10.720;2024-03-07T10:39:51;60.97;;;20.53;;
3006;SDS011;1513;47.650;10.720;2024-03-07T10:42:18;81.27;;;26.87;;
3006;SDS011;1513;47.650;10.720;2024-03-07T10:44:45;54.30;;;18.73;;
3006;SDS011;1513;47.650;10.720;2024-03-07T10:47:21;57.13;;;21.97;;
3006;SDS011;1513;47.650;10.720;2024-03-07T10:52:48;55.10;;;20.53;;
3006;SDS011;1513;47.650;10.720;2024-03-07T10:55:34;69.83;;;22.80;;
3006;SDS011;1513;47.650;10.720;2024-03-07T10:58:11;56.47;;;20.63;;
3006;SDS011;1513;47.650;10.720;2024-03-07T11:00:43;65.73;;;22.20;;
3006;SDS011;1513;47.650;10.720;2024-03-07T11:03:11;58.83;;;20.57;;
3006;SDS011;1513;47.650;10.720;2024-03-07T11:05:39;59.50;;;21.83;;
3006;SDS011;1513;47.650;10.720;2024-03-07T11:08:07;73.63;;;25.63;;
3006;SDS011;1513;47.650;10.720;2024-03-07T11:10:37;49.60;;;16.90;;
3006;SDS011;1513;47.650;10.720;2024-03-07T11:13:04;46.47;;;17.20;;
3006;SDS011;1513;47.650;10.720;2024-03-07T11:15:35;45.23;;;19.80;;
3006;SDS011;1513;47.650;10.720;2024-03-07T11:18:02;41.87;;;15.70;;
3006;SDS011;1513;47.650;10.720;2024-03-07T11:20:36;38.43;;;15.63;;
3006;SDS011;1513;47.650;10.720;2024-03-07T11:26:07;40.40;;;15.43;;
3006;SDS011;1513;47.650;10.720;2024-03-07T11:28:35;47.63;;;17.73;;
3006;SDS011;1513;47.650;10.720;2024-03-07T11:31:15;38.70;;;15.13;;
3006;SDS011;1513;47.650;10.720;2024-03-07T11:36:46;43.90;;;15.20;;
3006;SDS011;1513;47.650;10.720;2024-03-07T11:42:25;52.17;;;19.77;;
3006;SDS011;1513;47.650;10.720;2024-03-07T11:44:55;45.90;;;16.17;;
3006;SDS011;1513;47.650;10.720;2024-03-07T11:47:22;35.90;;;13.97;;
3006;SDS011;1513;47.650;10.720;2024-03-07T11:49:50;57.93;;;20.27;;
3006;SDS011;1513;47.650;10.720;2024-03-07T11:52:17;50.87;;;18.70;;
3006;SDS011;1513;47.650;10.720;2024-03-07T11:54:44;30.27;;;13.33;;
3006;SDS011;1513;47.650;10.720;2024-03-07T11:57:19;31.43;;;12.97;;
3006;SDS011;1513;47.650;10.720;2024-03-07T11:59:51;40.37;;;14.77;;
3006;SDS011;1513;47.650;10.720;2024-03-07T12:02:18;36.57;;;14.27;;
3006;SDS011;1513;47.650;10.720;2024-03-07T12:04:47;37.43;;;14.17;;
3006;SDS011;1513;47.650;10.720;2024-03-07T12:07:15;34.03;;;13.80;;
3006;SDS011;1513;47.650;10.720;2024-03-07T12:09:48;37.40;;;14.47;;
3006;SDS011;1513;47.650;10.720;2024-03-07T12:12:21;35.83;;;14.50;;
3006;SDS011;1513;47.650;10.720;2024-03-07T12:14:47;35.33;;;15.07;;
3006;SDS011;1513;47.650;10.720;2024-03-07T12:17:16;45.00;;;17.23;;
3006;SDS011;1513;47.650;10.720;2024-03-07T12:19:43;39.77;;;16.70;;
3006;SDS011;1513;47.650;10.720;2024-03-07T12:22:09;39.10;;;15.50;;
3006;SDS011;1513;47.650;10.720;2024-03-07T12:24:41;42.10;;;18.80;;
3006;SDS011;1513;47.650;10.720;2024-03-07T12:29:39;28.77;;;12.70;;
3006;SDS011;1513;47.650;10.720;2024-03-07T12:32:06;29.03;;;12.50;;
3006;SDS011;1513;47.650;10.720;2024-03-07T12:34:42;32.10;;;13.50;;
3006;SDS011;1513;47.650;10.720;2024-03-07T12:37:12;32.60;;;13.20;;
3006;SDS011;1513;47.650;10.720;2024-03-07T12:39:42;35.90;;;13.23;;
3006;SDS011;1513;47.650;10.720;2024-03-07T12:42:12;33.50;;;13.97;;
3006;SDS011;1513;47.650;10.720;2024-03-07T12:44:43;33.53;;;13.20;;
3006;SDS011;1513;47.650;10.720;2024-03-07T12:49:42;38.97;;;14.63;;
3006;SDS011;1513;47.650;10.720;2024-03-07T12:52:09;38.30;;;14.93;;
3006;SDS011;1513;47.650;10.720;2024-03-07T12:54:38;38.70;;;13.80;;
3006;SDS011;1513;47.650;10.720;2024-03-07T12:57:08;32.50;;;14.13;;
3006;SDS011;1513;47.650;10.720;2024-03-07T12:59:35;37.40;;;13.50;;
3006;SDS011;1513;47.650;10.720;2024-03-07T13:02:11;41.43;;;14.87;;
3006;SDS011;1513;47.650;10.720;2024-03-07T13:04:37;34.50;;;14.23;;
3006;SDS011;1513;47.650;10.720;2024-03-07T13:07:04;34.77;;;13.30;;
3006;SDS011;1513;47.650;10.720;2024-03-07T13:09:32;33.30;;;13.13;;
3006;SDS011;1513;47.650;10.720;2024-03-07T13:11:59;35.07;;;13.60;;
3006;SDS011;1513;47.650;10.720;2024-03-07T13:14:26;34.53;;;14.50;;
3006;SDS011;1513;47.650;10.720;2024-03-07T13:17:06;33.47;;;15.10;;
3006;SDS011;1513;47.650;10.720;2024-03-07T13:19:33;44.33;;;16.60;;
3006;SDS011;1513;47.650;10.720;2024-03-07T13:21:59;39.20;;;15.57;;
3006;SDS011;1513;47.650;10.720;2024-03-07T13:24:27;47.70;;;17.00;;
3006;SDS011;1513;47.650;10.720;2024-03-07T13:26:53;38.00;;;16.03;;
3006;SDS011;1513;47.650;10.720;2024-03-07T13:29:21;36.70;;;16.80;;
3006;SDS011;1513;47.650;10.720;2024-03-07T13:31:52;43.17;;;17.07;;
3006;SDS011;1513;47.650;10.720;2024-03-07T13:34:21;37.97;;;15.10;;
3006;SDS011;1513;47.650;10.720;2024-03-07T13:36:51;48.83;;;18.47;;
3006;SDS011;1513;47.650;10.720;2024-03-07T13:39:17;41.47;;;17.10;;
3006;SDS011;1513;47.650;10.720;2024-03-07T13:41:44;43.03;;;17.50;;
3006;SDS011;1513;47.650;10.720;2024-03-07T13:44:16;38.83;;;16.60;;
3006;SDS011;1513;47.650;10.720;2024-03-07T13:46:44;41.87;;;16.37;;
3006;SDS011;1513;47.650;10.720;2024-03-07T13:49:10;32.47;;;14.13;;
3006;SDS011;1513;47.650;10.720;2024-03-07T13:51:40;38.63;;;15.87;;
3006;SDS011;1513;47.650;10.720;2024-03-07T13:54:21;39.77;;;16.63;;
3006;SDS011;1513;47.650;10.720;2024-03-07T14:14:03;38.80;;;14.50;;
3006;SDS011;1513;47.650;10.720;2024-03-07T14:22:54;36.37;;;15.00;;
3006;SDS011;1513;47.650;10.720;2024-03-07T14:25:40;37.20;;;15.20;;
3006;SDS011;1513;47.650;10.720;2024-03-07T14:31:11;42.00;;;15.80;;
3006;SDS011;1513;47.650;10.720;2024-03-07T14:34:24;34.53;;;14.27;;
3006;SDS011;1513;47.650;10.720;2024-03-07T14:36:40;34.00;;;14.30;;
3006;SDS011;1513;47.650;10.720;2024-03-07T14:39:19;33.60;;;15.60;;
3006;SDS011;1513;47.650;10.720;2024-03-07T14:41:52;34.83;;;14.30;;
3006;SDS011;1513;47.650;10.720;2024-03-07T14:45:06;36.50;;;14.47;;
3006;SDS011;1513;47.650;10.720;2024-03-07T14:48:22;36.30;;;16.13;;
3006;SDS011;1513;47.650;10.720;2024-03-07T14:50:52;40.80;;;15.57;;
3006;SDS011;1513;47.650;10.720;2024-03-07T14:53:19;37.17;;;15.57;;
3006;SDS011;1513;47.650;10.720;2024-03-07T14:55:49;39.10;;;14.97;;
3006;SDS011;1513;47.650;10.720;2024-03-07T14:58:17;38.97;;;15.47;;
3006;SDS011;1513;47.650;10.720;2024-03-07T15:00:45;45.37;;;18.03;;
3006;SDS011;1513;47.650;10.720;2024-03-07T15:03:16;44.10;;;18.27;;
3006;SDS011;1513;47.650;10.720;2024-03-07T15:05:44;52.57;;;18.60;;
3006;SDS011;1513;47.650;10.720;2024-03-07T15:08:48;41.50;;;16.80;;
3006;SDS011;1513;47.650;10.720;2024-03-07T15:11:24;48.60;;;19.17;;
3006;SDS011;1513;47.650;10.720;2024-03-07T15:13:52;46.93;;;17.50;;
3006;SDS011;1513;47.650;10.720;2024-03-07T15:16:20;39.67;;;16.83;;
3006;SDS011;1513;47.650;10.720;2024-03-07T15:18:49;37.73;;;16.43;;
3006;SDS011;1513;47.650;10.720;2024-03-07T15:21:18;49.77;;;18.03;;
3006;SDS011;1513;47.650;10.720;2024-03-07T15:23:45;41.50;;;18.03;;
3006;SDS011;1513;47.650;10.720;2024-03-07T15:26:12;50.07;;;19.00;;
3006;SDS011;1513;47.650;10.720;2024-03-07T15:28:43;41.33;;;18.13;;
3006;SDS011;1513;47.650;10.720;2024-03-07T15:31:09;41.10;;;17.57;;
3006;SDS011;1513;47.650;10.720;2024-03-07T15:33:38;45.13;;;19.10;;
3006;SDS011;1513;47.650;10.720;2024-03-07T15:36:06;43.10;;;19.03;;
3006;SDS011;1513;47.650;10.720;2024-03-07T15:41:13;45.73;;;18.20;;
3006;SDS011;1513;47.650;10.720;2024-03-07T15:43:42;48.40;;;19.33;;
3006;SDS011;1513;47.650;10.720;2024-03-07T15:46:12;40.77;;;17.33;;
3006;SDS011;1513;47.650;10.720;2024-03-07T15:48:41;49.73;;;18.60;;
3006;SDS011;1513;47.650;10.720;2024-03-07T15:51:10;47.47;;;18.47;;
3006;SDS011;1513;47.650;10.720;2024-03-07T15:53:37;45.30;;;18.13;;
3006;SDS011;1513;47.650;10.720;2024-03-07T15:56:05;40.20;;;18.17;;
3006;SDS011;1513;47.650;10.720;2024-03-07T15:58:32;41.77;;;19.30;;
3006;SDS011;1513;47.650;10.720;2024-03-07T16:01:01;53.70;;;20.60;;
3006;SDS011;1513;47.650;10.720;2024-03-07T16:03:28;41.17;;;16.87;;
3006;SDS011;1513;47.650;10.720;2024-03-07T16:05:54;45.50;;;17.40;;
3006;SDS011;1513;47.650;10.720;2024-03-07T16:08:21;45.27;;;17.57;;
3006;SDS011;1513;47.650;10.720;2024-03-07T16:10:48;43.80;;;18.43;;
3006;SDS011;1513;47.650;10.720;2024-03-07T16:13:17;44.03;;;18.30;;
3006;SDS011;1513;47.650;10.720;2024-03-07T16:15:44;47.90;;;18.83;;
3006;SDS011;1513;47.650;10.720;2024-03-07T16:18:12;40.87;;;18.20;;
3006;SDS011;1513;47.650;10.720;2024-03-07T16:20:39;47.43;;;18.20;;
3006;SDS011;1513;47.650;10.720;2024-03-07T16:23:07;52.63;;;19.87;;
3006;SDS011;1513;47.650;10.720;2024-03-07T16:25:34;50.23;;;19.67;;
3006;SDS011;1513;47.650;10.720;2024-03-07T16:28:04;50.33;;;19.30;;
3006;SDS011;1513;47.650;10.720;2024-03-07T16:30:36;49.23;;;17.70;;
3006;SDS011;1513;47.650;10.720;2024-03-07T16:33:04;45.43;;;17.50;;
3006;SDS011;1513;47.650;10.720;2024-03-07T16:35:34;45.40;;;17.93;;
3006;SDS011;1513;47.650;10.720;2024-03-07T16:38:00;55.60;;;16.57;;
3006;SDS011;1513;47.650;10.720;2024-03-07T16:40:28;41.40;;;17.17;;
3006;SDS011;1513;47.650;10.720;2024-03-07T16:42:58;43.23;;;17.50;;
3006;SDS011;1513;47.650;10.720;2024-03-07T16:48:15;50.30;;;18.77;;
3006;SDS011;1513;47.650;10.720;2024-03-07T16:50:43;44.67;;;20.30;;
3006;SDS011;1513;47.650;10.720;2024-03-07T16:53:19;43.57;;;18.00;;
3006;SDS011;1513;47.650;10.720;2024-03-07T16:55:48;46.30;;;17.47;;
3006;SDS011;1513;47.650;10.720;2024-03-07T16:58:17;43.90;;;16.47;;
3006;SDS011;1513;47.650;10.720;2024-03-07T17:01:11;42.17;;;16.40;;
3006;SDS011;1513;47.650;10.720;2024-03-07T17:04:14;48.33;;;19.67;;
3006;SDS011;1513;47.650;10.720;2024-03-07T17:06:43;48.23;;;17.60;;
3006;SDS011;1513;47.650;10.720;2024-03-07T17:10:35;47.17;;;17.07;;
3006;SDS011;1513;47.650;10.720;2024-03-07T17:13:46;51.37;;;19.60;;
3006;SDS011;1513;47.650;10.720;2024-03-07T17:16:41;43.93;;;17.23;;
3006;SDS011;1513;47.650;10.720;2024-03-07T17:19:25;58.47;;;20.83;;
3006;SDS011;1513;47.650;10.720;2024-03-07T17:22:45;47.90;;;17.17;;
3006;SDS011;1513;47.650;10.720;2024-03-07T17:25:53;42.07;;;17.57;;
3006;SDS011;1513;47.650;10.720;2024-03-07T17:28:41;50.80;;;20.47;;
3006;SDS011;1513;47.650;10.720;2024-03-07T17:31:11;58.33;;;20.27;;
3006;SDS011;1513;47.650;10.720;2024-03-07T17:34:06;62.40;;;20.17;;
3006;SDS011;1513;47.650;10.720;2024-03-07T17:37:00;51.73;;;19.03;;
3006;SDS011;1513;47.650;10.720;2024-03-07T17:40:11;56.07;;;20.63;;
3006;SDS011;1513;47.650;10.720;2024-03-07T17:43:25;78.60;;;25.40;;
3006;SDS011;1513;47.650;10.720;2024-03-07T17:46:04;59.83;;;22.87;;
3006;SDS011;1513;47.650;10.720;2024-03-07T17:48:35;48.47;;;18.70;;
3006;SDS011;1513;47.650;10.720;2024-03-07T17:51:02;47.03;;;19.27;;
3006;SDS011;1513;47.650;10.720;2024-03-07T17:54:06;57.23;;;21.70;;
3006;SDS011;1513;47.650;10.720;2024-03-07T17:58:04;53.80;;;20.10;;
3006;SDS011;1513;47.650;10.720;2024-03-07T18:01:20;54.20;;;19.50;;
3006;SDS011;1513;47.650;10.720;2024-03-07T18:04:22;53.73;;;20.03;;
3006;SDS011;1513;47.650;10.720;2024-03-07T18:07:47;63.40;;;22.03;;
3006;SDS011;1513;47.650;10.720;2024-03-07T18:11:20;60.40;;;22.93;;
3006;SDS011;1513;47.650;10.720;2024-03-07T18:14:30;65.60;;;23.27;;
3006;SDS011;1513;47.650;10.720;2024-03-07T18:21:44;65.70;;;23.93;;
3006;SDS011;1513;47.650;10.720;2024-03-07T18:24:59;62.60;;;23.30;;
3006;SDS011;1513;47.650;10.720;2024-03-07T18:27:40;71.60;;;24.53;;
3006;SDS011;1513;47.650;10.720;2024-03-07T18:31:18;68.50;;;24.37;;
3006;SDS011;1513;47.650;10.720;2024-03-07T18:34:07;62.40;;;24.17;;